Huvudsida
METAR-TAF:

METAR-TAF

Flygplatser :

Tawau, Malaysia

latitud: 04-16N, longitud: 117-53E, höjd: 18 m

Aktuellt väderrapport

Denna rapport gjordes för 30 minuter sedan, klockan 15:00 UTC
Vind 3 kt från nord/nordväst, varierande mellan väst/nordväst och nord/nordost
Temperatur 26°C
Fuktighet 94%
Tryck 1010 hPa
Sikt 10 km eller mer
Få moln på en höjd av 1600 ft, Cumulonimbus.
Spridda moln på en höjd av 14000 ft
Brutna moln på en höjd av 30000 ft

METAR: WBKW 261500Z 34003KT 300V020 9999 FEW016CB SCT140 BKN300 26/25 Q1010

Tid: 23:30 (15:30 UTC)

Väderprognos

Denna rapport gjordes för 4 timmar och 30 minuter sedan, klockan 11:00 UTC
Prognos gäller från 26 kl. 12 UTC till 27 kl. 12 UTC
Vind 7 kt från nord/nordväst
Sikt 10 km eller mer
Få moln på en höjd av 1700 ft

TAF: WBKW 261100Z 2612/2712 33007KT 9999 FEW017

Aktuella väderrapporter och prognoser från 4000 flygplatser (METAR- och TAF-rapporter).

De tillgängliga stationerna syns som gula och röda prickar på kartan.

För musen över prickarna för att se namnen på stationerna.

Klicka sedan för att få väderrapporter och prognoser.

För att ändra kartan: Klicka på de gröna knapparna med ett svart kors på för att zooma in; den gröna knappen med ett streck på för att zooma ut; eller på de gröna pilarna för angränsande kartor.


METAR-TAF: